Time;durP1;ratioP1;P1;durP2;ratioP2;P2;SDS_P1;SDS_P2;PMS_P1;PMS_P2;Temp;Humidity;BMP_temperature;BMP_pressure;BME280_temperature;BME280_humidity;BME280_pressure;Samples;Min_cycle;Max_cycle;Signal;HPM_P1;HPM_P2
2022/05/31 00:02:20;;;;;;;5.40;4.85;;;;;;;22.22;54.96;101280.53;1595880;87;21116;-50
2022/05/31 00:04:47;;;;;;;7.92;4.83;;;;;;;22.23;55.06;101286.23;1600306;88;21057;-48
2022/05/31 00:07:14;;;;;;;6.15;4.55;;;;;;;22.22;55.03;101283.19;1588067;87;21057;-52
2022/05/31 00:09:40;;;;;;;5.78;4.53;;;;;;;22.20;54.94;101278.45;1581647;88;21150;-50
2022/05/31 00:12:09;;;;;;;8.55;5.00;;;;;;;22.16;55.00;101280.91;1583142;88;21103;-49
2022/05/31 00:14:35;;;;;;;9.33;5.53;;;;;;;22.10;55.18;101284.41;1578264;88;21118;-51
2022/05/31 00:17:04;;;;;;;6.00;4.90;;;;;;;22.05;55.45;101281.20;1580185;88;21109;-50
2022/05/31 00:19:30;;;;;;;9.38;5.17;;;;;;;22.01;55.58;101281.84;1586849;88;21089;-50
2022/05/31 00:22:12;;;;;;;8.98;5.58;;;;;;;21.98;55.82;101282.51;1590053;88;21086;-48
2022/05/31 00:24:39;;;;;;;7.17;5.55;;;;;;;21.92;56.09;101282.41;1586387;88;21030;-51
2022/05/31 00:27:10;;;;;;;9.25;4.97;;;;;;;21.87;56.46;101289.77;1611206;88;22359;-49
2022/05/31 00:29:37;;;;;;;8.58;5.05;;;;;;;21.81;56.94;101279.08;1600507;88;21086;-52
2022/05/31 00:32:08;;;;;;;6.42;4.37;;;;;;;21.77;57.57;101280.64;1596986;88;21484;-48
2022/05/31 00:34:37;;;;;;;7.25;4.42;;;;;;;21.77;58.16;101275.34;1606709;88;21594;-50
2022/05/31 00:37:04;;;;;;;7.45;4.35;;;;;;;21.78;58.79;101274.41;1604443;88;21030;-50
2022/05/31 00:39:31;;;;;;;4.62;4.08;;;;;;;21.81;59.17;101264.94;1596041;88;21062;-50
2022/05/31 00:42:08;;;;;;;4.60;4.03;;;;;;;21.84;59.53;101263.48;1607556;88;21050;-50
2022/05/31 00:44:36;;;;;;;5.92;4.15;;;;;;;21.88;59.77;101259.70;1581758;88;21103;-50
2022/05/31 00:47:30;;;;;;;4.00;3.60;;;;;;;21.90;59.75;101260.45;1563067;89;21054;-50
2022/05/31 00:50:11;;;;;;;4.70;4.30;;;;;;;21.95;59.63;101273.44;1502318;94;21095;-51
2022/05/31 00:52:45;;;;;;;6.70;4.55;;;;;;;21.98;59.58;101270.12;1537159;92;21114;-50
2022/05/31 00:55:26;;;;;;;5.28;4.72;;;;;;;22.02;59.52;101268.13;1514703;94;21100;-55
2022/05/31 00:58:01;;;;;;;4.97;4.22;;;;;;;22.05;59.43;101260.00;1472543;96;21112;-52
2022/05/31 01:00:29;;;;;;;5.58;4.17;;;;;;;22.09;59.31;101258.87;1473892;96;21073;-50
2022/05/31 01:02:56;;;;;;;8.78;5.03;;;;;;;22.08;59.36;101259.33;1474578;96;21111;-48
2022/05/31 01:05:24;;;;;;;5.72;5.15;;;;;;;22.10;59.44;101261.41;1432479;98;21107;-50
2022/05/31 01:07:51;;;;;;;4.90;4.42;;;;;;;22.09;59.53;101262.34;1465428;97;21138;-50
2022/05/31 01:10:17;;;;;;;5.83;5.33;;;;;;;22.09;59.68;101258.38;1476186;96;21576;-48
2022/05/31 01:13:03;;;;;;;6.70;5.45;;;;;;;22.09;59.79;101263.67;1452304;98;21618;-52
2022/05/31 01:15:50;;;;;;;8.98;5.03;;;;;;;22.11;59.95;101264.92;1448451;97;21601;-50
2022/05/31 01:18:38;;;;;;;6.72;4.87;;;;;;;22.11;60.01;101268.44;1448597;97;21708;-52
2022/05/31 01:21:23;;;;;;;6.75;5.37;;;;;;;22.11;60.13;101272.41;1438649;99;21107;-50
2022/05/31 01:24:12;;;;;;;5.40;4.90;;;;;;;22.13;60.33;101271.84;1448448;98;21658;-50
2022/05/31 01:26:50;;;;;;;5.67;5.10;;;;;;;22.14;60.52;101268.23;1445946;97;21133;-50
2022/05/31 01:29:27;;;;;;;7.20;5.53;;;;;;;22.16;60.67;101273.42;1451472;98;21081;-52
2022/05/31 01:32:00;;;;;;;6.80;6.10;;;;;;;22.18;60.78;101272.39;1463194;97;21128;-50
2022/05/31 01:34:35;;;;;;;6.33;5.45;;;;;;;22.18;60.92;101268.42;1451556;98;21142;-52
2022/05/31 01:37:03;;;;;;;6.55;5.90;;;;;;;22.18;61.05;101267.56;1463273;96;21589;-48
2022/05/31 01:39:51;;;;;;;8.55;5.90;;;;;;;22.18;61.14;101270.21;1462299;96;21142;-50
2022/05/31 01:42:40;;;;;;;7.80;5.40;;;;;;;22.17;61.16;101276.48;1514541;93;21082;-52
2022/05/31 01:45:17;;;;;;;6.67;6.08;;;;;;;22.18;61.25;101276.84;1514589;92;21049;-49
2022/05/31 01:47:44;;;;;;;6.47;5.87;;;;;;;22.20;61.28;101274.94;1543488;91;21102;-51
2022/05/31 01:50:16;;;;;;;6.08;5.47;;;;;;;22.21;61.29;101276.66;1548677;91;21087;-49
2022/05/31 01:52:43;;;;;;;7.70;5.55;;;;;;;22.22;61.35;101275.23;1598250;85;21107;-53
2022/05/31 01:55:10;;;;;;;6.08;5.37;;;;;;;22.22;61.37;101279.67;1687085;85;21587;-50
2022/05/31 01:57:37;;;;;;;6.10;5.50;;;;;;;22.23;61.29;101276.95;1696319;84;21516;-48
2022/05/31 02:00:10;;;;;;;6.97;5.85;;;;;;;22.22;61.17;101271.26;1681535;85;21100;-50
2022/05/31 02:02:48;;;;;;;6.20;5.70;;;;;;;22.23;61.11;101272.12;1655323;86;21073;-51
2022/05/31 02:05:15;;;;;;;6.67;5.67;;;;;;;22.21;61.28;101272.22;1620376;86;21061;-50
2022/05/31 02:08:00;;;;;;;7.08;6.37;;;;;;;22.20;61.50;101263.87;1620957;87;21065;-51
2022/05/31 02:10:27;;;;;;;7.58;5.65;;;;;;;22.20;61.59;101265.20;1631550;86;21510;-49
2022/05/31 02:12:55;;;;;;;7.70;6.22;;;;;;;22.22;61.61;101271.72;1644524;86;21117;-49
2022/05/31 02:15:27;;;;;;;6.85;6.10;;;;;;;22.22;61.70;101272.58;1650603;85;21212;-50
2022/05/31 02:18:12;;;;;;;7.05;6.17;;;;;;;22.24;61.78;101283.08;1644863;86;21049;-49
2022/05/31 02:20:50;;;;;;;7.40;6.20;;;;;;;22.24;61.77;101287.92;1655479;85;21543;-51
2022/05/31 02:23:16;;;;;;;6.47;5.87;;;;;;;22.24;61.71;101286.59;1624837;87;21151;-51
2022/05/31 02:25:44;;;;;;;7.22;6.15;;;;;;;22.25;61.72;101283.48;1629761;85;21613;-50
2022/05/31 02:28:11;;;;;;;8.15;6.30;;;;;;;22.26;61.71;101287.81;1640532;86;21105;-51
2022/05/31 02:30:38;;;;;;;6.37;5.78;;;;;;;22.26;61.62;101286.49;1649674;85;21049;-52
2022/05/31 02:33:05;;;;;;;6.05;5.50;;;;;;;22.26;61.55;101291.33;1623235;86;21094;-50
2022/05/31 02:35:32;;;;;;;7.70;6.62;;;;;;;22.25;61.50;101285.66;1623823;86;21042;-48
2022/05/31 02:37:59;;;;;;;8.60;6.05;;;;;;;22.25;61.53;101290.97;1631528;86;21046;-50
2022/05/31 02:40:27;;;;;;;7.08;6.37;;;;;;;22.23;61.51;101289.34;1624643;85;21057;-53
2022/05/31 02:42:54;;;;;;;6.97;6.37;;;;;;;22.24;61.71;101289.25;1633950;86;21041;-51
2022/05/31 02:45:20;;;;;;;7.22;6.50;;;;;;;22.24;62.01;101287.92;1648156;86;21033;-49
2022/05/31 02:47:49;;;;;;;7.12;5.75;;;;;;;22.26;62.12;101286.49;1651900;86;21038;-51
2022/05/31 02:50:16;;;;;;;6.95;5.95;;;;;;;22.28;62.06;101293.41;1642747;86;21549;-49
2022/05/31 02:52:43;;;;;;;7.67;6.40;;;;;;;22.30;62.03;101288.86;1629852;86;21075;-50
2022/05/31 02:55:10;;;;;;;7.40;6.55;;;;;;;22.32;62.08;101290.95;1649073;86;21059;-50
2022/05/31 02:57:44;;;;;;;9.68;6.40;;;;;;;22.34;62.07;101290.38;1576067;88;21046;-49
2022/05/31 03:00:18;;;;;;;7.62;6.40;;;;;;;22.34;62.11;101289.05;1590940;88;21554;-53
2022/05/31 03:03:04;;;;;;;8.55;6.70;;;;;;;22.34;62.08;101289.05;1577734;89;21060;-52
2022/05/31 03:05:50;;;;;;;6.87;6.28;;;;;;;22.33;62.12;101286.04;1598309;87;21157;-50
2022/05/31 03:08:35;;;;;;;7.42;6.70;;;;;;;22.32;62.23;101286.97;1595653;88;21088;-49
2022/05/31 03:11:14;;;;;;;8.00;7.22;;;;;;;22.29;62.23;101292.48;1506389;94;21604;-49
2022/05/31 03:13:41;;;;;;;6.37;5.78;;;;;;;22.28;62.25;101296.06;1509124;93;21099;-49
2022/05/31 03:16:07;;;;;;;7.22;6.53;;;;;;;22.25;62.33;101297.59;1507734;93;21165;-49
2022/05/31 03:18:38;;;;;;;7.75;6.67;;;;;;;22.23;62.34;101304.79;1508222;93;21138;-50
2022/05/31 03:21:13;;;;;;;7.65;6.75;;;;;;;22.21;62.38;101296.08;1507882;93;21121;-48
2022/05/31 03:23:43;;;;;;;7.30;6.65;;;;;;;22.19;62.39;101309.90;1487458;95;21127;-50
2022/05/31 03:26:12;;;;;;;7.58;6.87;;;;;;;22.18;62.30;101310.83;1493612;94;21151;-49
2022/05/31 03:28:39;;;;;;;8.25;7.17;;;;;;;22.16;62.36;101311.39;1491044;95;23350;-51
2022/05/31 03:31:06;;;;;;;7.87;6.53;;;;;;;22.16;62.28;101307.89;1487378;95;21171;-50
2022/05/31 03:33:33;;;;;;;7.90;6.90;;;;;;;22.16;62.28;101306.09;1494812;95;21164;-52
2022/05/31 03:36:00;;;;;;;6.45;5.87;;;;;;;22.21;62.22;101312.45;1527271;93;21722;-50
2022/05/31 03:38:29;;;;;;;7.58;6.87;;;;;;;22.27;62.03;101316.91;1524249;93;21579;-51
2022/05/31 03:40:56;;;;;;;8.08;6.37;;;;;;;22.36;61.85;101322.95;1529212;92;21067;-50
2022/05/31 03:43:26;;;;;;;7.15;6.45;;;;;;;22.50;61.75;101323.45;1527291;93;21108;-49
2022/05/31 03:45:55;;;;;;;8.50;6.07;;;;;;;22.67;61.16;101321.11;1526635;93;21602;-50
2022/05/31 03:48:36;;;;;;;7.45;6.60;;;;;;;22.79;60.84;101325.17;1532794;92;21127;-48
2022/05/31 03:51:06;;;;;;;8.80;6.40;;;;;;;22.94;60.53;101328.62;1525885;93;21139;-50
2022/05/31 03:53:33;;;;;;;6.87;6.17;;;;;;;23.09;60.22;101322.34;1524319;93;21070;-48
2022/05/31 03:56:06;;;;;;;6.42;5.83;;;;;;;23.22;59.69;101321.46;1532615;93;21141;-50
2022/05/31 03:58:34;;;;;;;6.50;5.90;;;;;;;23.31;59.32;101322.64;1527195;93;21097;-50
2022/05/31 04:01:06;;;;;;;7.47;6.78;;;;;;;23.32;58.89;101335.01;1492396;95;21121;-50
2022/05/31 04:03:33;;;;;;;6.95;6.35;;;;;;;23.29;58.90;101329.85;1491586;96;21105;-49
2022/05/31 04:06:01;;;;;;;6.70;6.10;;;;;;;23.26;58.96;101336.23;1486421;95;21589;-49
2022/05/31 04:08:29;;;;;;;7.00;6.12;;;;;;;23.24;58.95;101338.61;1506235;94;21092;-49
2022/05/31 04:10:56;;;;;;;7.12;6.35;;;;;;;23.21;58.85;101338.80;1524753;92;21126;-48
2022/05/31 04:13:23;;;;;;;7.72;6.45;;;;;;;23.13;59.00;101335.78;1533335;92;21092;-50
2022/05/31 04:16:13;;;;;;;8.78;6.37;;;;;;;23.06;58.98;101349.09;1534864;92;21176;-49
2022/05/31 04:18:43;;;;;;;6.45;5.90;;;;;;;22.97;59.13;101343.03;1528342;92;21123;-52
2022/05/31 04:21:12;;;;;;;7.33;6.33;;;;;;;22.89;59.32;101343.53;1561716;91;21140;-49
2022/05/31 04:26:45;;;;;;;7.12;6.35;;;;;;;22.76;59.72;101350.55;1594421;88;21030;-48
2022/05/31 04:29:31;;;;;;;6.92;6.22;;;;;;;22.73;59.66;101348.08;1594674;88;21549;-49
2022/05/31 04:32:17;;;;;;;6.90;6.20;;;;;;;22.67;59.90;101348.45;1594614;88;21105;-48
2022/05/31 04:34:48;;;;;;;7.45;6.70;;;;;;;22.67;60.07;101350.28;1591593;88;21065;-49
2022/05/31 04:37:16;;;;;;;7.20;6.50;;;;;;;22.70;60.00;101349.61;1594674;88;21073;-50
2022/05/31 04:40:02;;;;;;;6.60;6.00;;;;;;;22.75;59.88;101353.31;1623592;86;21093;-48
2022/05/31 04:42:43;;;;;;;6.60;6.00;;;;;;;22.79;59.82;101346.86;1628308;86;21133;-49
2022/05/31 04:45:29;;;;;;;6.85;6.15;;;;;;;22.83;59.84;101347.91;1632144;86;21542;-50
2022/05/31 04:47:57;;;;;;;6.92;6.22;;;;;;;22.83;59.73;101349.23;1609292;88;21109;-48
2022/05/31 04:50:23;;;;;;;8.58;6.72;;;;;;;22.83;59.83;101344.39;1665849;85;21063;-49
2022/05/31 04:52:50;;;;;;;7.55;6.95;;;;;;;22.85;59.97;101351.78;1697461;83;21565;-50
2022/05/31 04:55:18;;;;;;;8.80;6.70;;;;;;;22.89;59.87;101350.63;1694236;83;21160;-49
2022/05/31 04:57:52;;;;;;;6.87;6.12;;;;;;;22.95;59.80;101355.55;1679455;85;21024;-54
2022/05/31 05:00:21;;;;;;;7.83;6.70;;;;;;;23.01;59.65;101365.78;1675234;85;21078;-49
2022/05/31 05:02:52;;;;;;;7.37;6.65;;;;;;;23.06;59.50;101374.31;1680672;85;21054;-48
2022/05/31 05:05:20;;;;;;;8.10;6.70;;;;;;;23.12;59.49;101381.88;1681996;85;21543;-50
2022/05/31 05:07:48;;;;;;;7.40;6.58;;;;;;;23.21;59.44;101379.48;1681441;85;21003;-50
2022/05/31 05:10:17;;;;;;;10.00;6.55;;;;;;;23.37;59.07;101378.03;1699124;84;21035;-49
2022/05/31 05:13:02;;;;;;;7.08;6.47;;;;;;;23.52;58.69;101383.69;1693170;84;21051;-48
2022/05/31 05:15:42;;;;;;;9.33;6.30;;;;;;;23.69;58.12;101381.25;1607133;87;21077;-47
2022/05/31 05:18:11;;;;;;;7.65;6.90;;;;;;;23.86;57.54;101388.50;1625050;87;21609;-48
2022/05/31 05:20:40;;;;;;;7.08;6.33;;;;;;;24.03;57.18;101385.56;1579038;88;21132;-52
2022/05/31 05:23:07;;;;;;;7.62;6.53;;;;;;;24.21;56.76;101385.64;1596494;87;21123;-50
2022/05/31 05:25:34;;;;;;;7.55;6.75;;;;;;;24.34;56.33;101386.16;1606625;87;21129;-49
2022/05/31 05:30:38;;;;;;;7.47;6.40;;;;;;;24.43;56.10;101395.67;1616237;87;21142;-50
2022/05/31 05:30:41;;;;;;;6.85;6.17;;;;;;;24.53;55.67;101403.86;1606628;86;21176;-53
2022/05/31 05:33:15;;;;;;;6.95;6.25;;;;;;;24.59;55.42;101407.42;1583496;88;21118;-49
2022/05/31 05:35:50;;;;;;;6.95;6.25;;;;;;;24.64;55.00;101411.95;1510843;93;21617;-51
2022/05/31 05:38:17;;;;;;;6.70;6.00;;;;;;;24.69;54.85;101408.51;1539820;91;21122;-49
2022/05/31 05:40:46;;;;;;;7.08;6.37;;;;;;;24.74;54.76;101409.05;1500122;93;21042;-48
2022/05/31 05:43:13;;;;;;;6.83;6.08;;;;;;;24.81;54.57;101410.34;1496496;93;21130;-48
2022/05/31 05:45:41;;;;;;;6.65;5.90;;;;;;;24.90;54.27;101408.34;1500083;94;21360;-48
2022/05/31 05:48:09;;;;;;;6.47;5.87;;;;;;;24.95;53.96;101416.39;1493215;94;21585;-51
2022/05/31 05:50:37;;;;;;;6.78;6.08;;;;;;;25.05;53.86;101419.23;1492499;94;21159;-48
2022/05/31 05:53:10;;;;;;;6.00;5.47;;;;;;;25.15;53.44;101420.28;1487816;95;21213;-50
2022/05/31 05:55:43;;;;;;;6.78;5.97;;;;;;;25.22;53.35;101418.89;1511287;93;21083;-48
2022/05/31 05:58:28;;;;;;;6.95;5.55;;;;;;;25.27;53.22;101420.72;1513251;94;21129;-50
2022/05/31 06:01:31;;;;;;;6.47;5.55;;;;;;;25.40;53.29;101422.02;1518228;94;21576;-49
2022/05/31 06:04:11;;;;;;;7.62;6.33;;;;;;;25.61;53.02;101424.02;1512143;94;21443;-50
2022/05/31 06:06:38;;;;;;;6.87;5.85;;;;;;;25.82;52.40;101418.39;1521160;93;21599;-49
2022/05/31 06:09:08;;;;;;;7.50;6.80;;;;;;;26.11;51.60;101427.41;1515540;93;21136;-48
2022/05/31 06:11:43;;;;;;;6.53;5.87;;;;;;;26.11;51.60;101427.41;1517144;93;21143;-49
2022/05/31 06:14:18;;;;;;;8.80;5.97;;;;;;;26.35;50.81;101422.86;1511020;93;21134;-50
2022/05/31 06:16:53;;;;;;;8.00;6.22;;;;;;;26.35;50.81;101422.86;1524518;93;21185;-48
2022/05/31 06:19:23;;;;;;;8.40;6.40;;;;;;;26.49;50.67;101414.16;1568511;90;21681;-50
2022/05/31 06:21:51;;;;;;;6.60;6.00;;;;;;;26.66;50.19;101415.99;1570722;89;21105;-51
2022/05/31 06:24:23;;;;;;;8.55;6.15;;;;;;;26.85;49.65;101422.48;1553921;91;21144;-48
2022/05/31 06:26:51;;;;;;;9.85;6.85;;;;;;;27.12;49.39;101417.59;1513076;92;21207;-48
2022/05/31 06:29:18;;;;;;;7.35;6.40;;;;;;;27.42;48.54;101420.13;1562515;90;22610;-50
2022/05/31 06:31:45;;;;;;;6.72;6.08;;;;;;;27.65;48.22;101417.29;1585732;86;21031;-50
2022/05/31 06:34:16;;;;;;;6.65;6.05;;;;;;;27.87;47.46;101423.03;1578370;89;22600;-48
2022/05/31 06:36:52;;;;;;;7.08;6.47;;;;;;;27.88;46.99;101428.24;1582085;90;21122;-50
2022/05/31 06:39:19;;;;;;;6.42;5.80;;;;;;;27.81;47.21;101427.55;1577614;90;21137;-49
2022/05/31 06:41:45;;;;;;;6.58;5.67;;;;;;;27.75;47.19;101429.40;1577509;90;21060;-51
2022/05/31 06:44:35;;;;;;;8.55;6.33;;;;;;;27.75;47.32;101429.40;1551602;90;21108;-49
2022/05/31 06:47:20;;;;;;;7.92;6.65;;;;;;;27.68;47.34;101429.53;1487795;93;21131;-48
2022/05/31 06:50:07;;;;;;;7.40;6.37;;;;;;;27.67;47.33;101426.52;1482906;94;21111;-48
2022/05/31 06:58:33;;;;;;;6.90;6.30;;;;;;;27.69;47.62;101425.90;1472928;96;21146;-51
2022/05/31 07:01:06;;;;;;;8.50;6.33;;;;;;;27.89;47.42;101429.09;1464993;96;21826;-50
2022/05/31 07:03:33;;;;;;;6.55;5.95;;;;;;;28.11;47.18;101434.38;1420075;100;21207;-49
2022/05/31 07:06:01;;;;;;;7.10;6.40;;;;;;;28.34;46.84;101438.63;1448871;97;21568;-49
2022/05/31 07:08:29;;;;;;;7.42;6.78;;;;;;;28.61;46.45;101430.95;1453923;96;21139;-49
2022/05/31 07:11:00;;;;;;;7.37;6.62;;;;;;;28.88;45.85;101431.23;1451404;97;21226;-50
2022/05/31 07:13:46;;;;;;;6.92;6.22;;;;;;;29.13;45.34;101427.73;1457585;95;21117;-49
2022/05/31 07:16:30;;;;;;;6.10;5.60;;;;;;;29.42;44.85;101432.71;1453108;95;21219;-51
2022/05/31 07:19:15;;;;;;;8.25;6.80;;;;;;;29.72;44.40;101429.92;1454466;97;21802;-50
2022/05/31 07:21:44;;;;;;;9.60;7.03;;;;;;;29.95;43.49;101428.70;1479259;95;21116;-51
2022/05/31 07:24:11;;;;;;;7.83;7.08;;;;;;;30.07;42.86;101423.53;1514004;93;21161;-48
2022/05/31 07:26:39;;;;;;;8.10;6.78;;;;;;;30.13;42.53;101429.67;1504421;94;21124;-50
2022/05/31 07:29:08;;;;;;;7.45;6.75;;;;;;;30.15;42.46;101430.37;1512350;93;21667;-49
2022/05/31 07:31:36;;;;;;;6.78;5.85;;;;;;;30.13;41.72;101428.34;1535831;92;21120;-50
2022/05/31 07:34:04;;;;;;;9.48;7.15;;;;;;;30.05;42.01;101426.00;1537289;91;21089;-51
2022/05/31 07:36:32;;;;;;;10.23;6.75;;;;;;;29.98;42.06;101432.46;1555121;90;21136;-51
2022/05/31 07:39:04;;;;;;;10.38;7.00;;;;;;;29.92;41.88;101434.38;1503704;94;21080;-50
2022/05/31 07:41:33;;;;;;;11.88;6.97;;;;;;;29.83;41.88;101433.86;1498586;95;21133;-48
2022/05/31 07:44:01;;;;;;;7.85;7.05;;;;;;;29.72;41.94;101435.29;1524738;91;21109;-49
2022/05/31 07:46:29;;;;;;;10.28;6.70;;;;;;;29.59;42.02;101440.09;1576738;89;21155;-49
2022/05/31 07:48:58;;;;;;;7.83;5.60;;;;;;;29.45;42.40;101440.50;1569079;90;21056;-48
2022/05/31 07:51:39;;;;;;;6.60;5.15;;;;;;;29.35;42.77;101439.59;1591798;88;21138;-50
2022/05/31 07:54:08;;;;;;;5.72;5.10;;;;;;;29.24;42.90;101439.73;1553120;91;21193;-49
2022/05/31 07:56:53;;;;;;;7.80;5.53;;;;;;;29.13;43.26;101439.78;1524367;92;21109;-50
2022/05/31 07:59:21;;;;;;;8.28;5.85;;;;;;;28.98;43.20;101433.45;1522832;92;21336;-48
2022/05/31 08:05:04;;;;;;;6.12;4.65;;;;;;;28.74;43.68;101431.59;1501859;92;21101;-50
2022/05/31 08:07:31;;;;;;;7.28;4.92;;;;;;;28.63;43.54;101434.34;1505314;94;21120;-49
2022/05/31 08:09:59;;;;;;;5.15;4.28;;;;;;;28.59;43.69;101436.08;1495593;93;21139;-51
2022/05/31 08:12:25;;;;;;;4.72;4.28;;;;;;;28.56;43.60;101433.20;1499668;94;21241;-51
2022/05/31 08:14:52;;;;;;;6.10;4.80;;;;;;;28.54;43.64;101435.09;1454785;97;21147;-48
2022/05/31 08:17:19;;;;;;;5.95;4.00;;;;;;;28.54;43.98;101423.05;1501877;93;21137;-51
2022/05/31 08:19:46;;;;;;;4.85;4.30;;;;;;;28.55;44.07;101426.09;1510308;93;21125;-48
2022/05/31 08:22:13;;;;;;;6.67;4.33;;;;;;;28.58;44.12;101425.02;1543429;90;21083;-50
2022/05/31 08:24:39;;;;;;;6.42;4.50;;;;;;;28.63;44.55;101430.33;1497312;94;21157;-48
2022/05/31 08:27:06;;;;;;;5.83;4.90;;;;;;;28.71;44.79;101429.17;1519182;93;21147;-48
2022/05/31 08:29:34;;;;;;;8.35;5.15;;;;;;;28.78;44.30;101424.98;1510088;92;21129;-49
2022/05/31 08:32:00;;;;;;;5.90;4.47;;;;;;;28.84;44.30;101423.11;1548719;89;21568;-49
2022/05/31 08:34:29;;;;;;;8.85;4.67;;;;;;;28.89;43.98;101421.38;1601152;88;21534;-48
2022/05/31 08:36:56;;;;;;;6.47;5.78;;;;;;;28.94;43.59;101425.34;1618005;87;21044;-48
2022/05/31 08:39:23;;;;;;;5.92;5.42;;;;;;;28.94;43.63;101428.02;1662198;83;21045;-49
2022/05/31 08:41:54;;;;;;;8.88;6.22;;;;;;;28.96;44.04;101427.88;1691702;84;21044;-48
2022/05/31 08:44:52;;;;;;;5.83;5.25;;;;;;;28.95;43.96;101436.39;1691482;85;20974;-48
2022/05/31 08:48:00;;;;;;;9.80;5.70;;;;;;;28.95;43.94;101435.05;1700055;84;21017;-50
2022/05/31 08:53:46;;;;;;;6.22;4.95;;;;;;;28.94;43.77;101425.34;1547495;88;21101;-47
2022/05/31 08:59:50;;;;;;;6.03;4.50;;;;;;;28.91;43.56;101432.29;1574085;90;21192;-51
2022/05/31 09:02:34;;;;;;;9.30;5.53;;;;;;;28.88;43.75;101428.55;1557784;90;21086;-49
2022/05/31 09:05:09;;;;;;;7.50;5.17;;;;;;;28.85;44.12;101434.17;1533440;92;21120;-55
2022/05/31 09:07:44;;;;;;;8.85;5.40;;;;;;;28.85;44.11;101432.83;1518518;93;21231;-54
2022/05/31 09:10:25;;;;;;;8.65;5.42;;;;;;;28.86;43.98;101437.22;1495430;94;21133;-51
2022/05/31 09:13:03;;;;;;;5.60;5.07;;;;;;;28.83;43.81;101433.45;1467267;96;21579;-49
2022/05/31 09:15:43;;;;;;;7.62;5.85;;;;;;;28.80;43.86;101439.09;1479081;96;21121;-52
2022/05/31 09:18:22;;;;;;;6.22;4.72;;;;;;;28.79;43.70;101442.73;1473800;95;21102;-51
2022/05/31 09:21:04;;;;;;;7.85;5.40;;;;;;;28.78;43.54;101437.05;1456805;96;21170;-49
2022/05/31 09:23:33;;;;;;;7.72;4.50;;;;;;;28.77;43.70;101441.20;1498534;94;21161;-48
2022/05/31 09:26:31;;;;;;;5.95;4.10;;;;;;;28.73;43.47;101432.56;1482333;95;21548;-50
2022/05/31 09:29:21;;;;;;;5.55;4.53;;;;;;;28.70;43.38;101434.19;1494945;95;21146;-52
2022/05/31 09:32:29;;;;;;;5.62;3.75;;;;;;;28.68;43.21;101433.47;1460374;96;21230;-50
2022/05/31 09:35:24;;;;;;;4.25;3.85;;;;;;;28.66;43.28;101435.44;1455026;97;21112;-50
2022/05/31 09:38:34;;;;;;;5.83;4.45;;;;;;;28.66;43.38;101435.92;1469543;96;21292;-48
2022/05/31 09:41:16;;;;;;;5.87;3.57;;;;;;;28.68;43.36;101432.13;1462779;96;21135;-51
2022/05/31 09:43:55;;;;;;;4.33;3.70;;;;;;;28.73;43.27;101435.23;1397895;100;21194;-49
2022/05/31 09:46:41;;;;;;;4.20;3.42;;;;;;;28.79;43.29;101435.22;1421451;99;21192;-48
2022/05/31 09:49:39;;;;;;;5.78;3.60;;;;;;;28.83;43.06;101438.81;1449052;96;21168;-51
2022/05/31 09:52:17;;;;;;;3.95;3.50;;;;;;;28.88;42.99;101441.95;1449209;96;21112;-48
2022/05/31 09:58:28;;;;;;;3.98;3.42;;;;;;;29.03;43.29;101432.20;1429104;97;21173;-48
2022/05/31 10:01:29;;;;;;;5.62;3.55;;;;;;;29.13;42.73;101435.77;1327389;106;21229;-50
2022/05/31 10:04:08;;;;;;;3.70;3.40;;;;;;;29.21;43.05;101439.50;1347490;105;21283;-50
2022/05/31 10:06:39;;;;;;;3.83;3.45;;;;;;;29.30;43.12;101437.84;1412269;98;21191;-50
2022/05/31 10:09:17;;;;;;;6.03;3.70;;;;;;;29.38;43.10;101442.02;1438595;97;21115;-53
2022/05/31 10:11:45;;;;;;;7.42;5.53;;;;;;;29.46;42.95;101448.88;1444188;98;21163;-50
2022/05/31 10:14:28;;;;;;;4.70;4.20;;;;;;;29.51;42.67;101445.30;1446112;98;21360;-52
2022/05/31 10:16:55;;;;;;;5.25;4.00;;;;;;;29.56;42.76;101443.03;1452696;94;21253;-50
2022/05/31 10:19:28;;;;;;;5.20;4.37;;;;;;;29.59;42.48;101442.77;1478439;95;21430;-51
2022/05/31 10:21:56;;;;;;;6.72;4.90;;;;;;;29.62;42.15;101445.16;1530929;91;21126;-50
2022/05/31 10:24:29;;;;;;;6.67;4.05;;;;;;;29.64;41.91;101445.88;1497254;94;21634;-49
2022/05/31 10:27:23;;;;;;;4.25;3.85;;;;;;;29.64;42.07;101451.23;1525137;94;21107;-48
2022/05/31 10:30:01;;;;;;;8.13;4.33;;;;;;;29.64;42.00;101443.19;1526715;92;21142;-48
2022/05/31 10:32:54;;;;;;;4.08;3.67;;;;;;;29.65;41.81;101444.90;1518993;93;21077;-51
2022/05/31 10:35:33;;;;;;;5.00;3.45;;;;;;;29.66;42.03;101444.75;1467170;96;21135;-48
2022/05/31 10:38:10;;;;;;;5.22;3.77;;;;;;;29.69;41.83;101443.63;1465035;96;21093;-49
2022/05/31 10:40:55;;;;;;;6.15;4.55;;;;;;;29.71;41.48;101438.98;1491382;94;21153;-52
2022/05/31 10:43:44;;;;;;;6.10;4.33;;;;;;;29.71;41.50;101430.93;1485593;95;21260;-49
2022/05/31 10:46:19;;;;;;;5.72;3.98;;;;;;;29.72;41.51;101432.61;1499223;94;21350;-48
2022/05/31 10:48:52;;;;;;;4.42;3.55;;;;;;;29.72;42.00;101435.29;1492181;94;21305;-48
2022/05/31 10:51:59;;;;;;;6.60;3.90;;;;;;;29.75;42.28;101432.38;1477844;96;21187;-50
2022/05/31 10:55:14;;;;;;;5.12;4.08;;;;;;;29.79;42.10;101443.18;1533539;90;21614;-48
2022/05/31 10:58:08;;;;;;;4.05;3.75;;;;;;;29.82;42.02;101441.54;1545044;92;21596;-51
2022/05/31 11:00:49;;;;;;;7.95;4.30;;;;;;;29.81;41.69;101443.88;1517347;93;21668;-50
2022/05/31 11:03:31;;;;;;;;;;;;;;;29.78;42.06;101438.78;1591593;88;21598;-49
2022/05/31 11:06:32;;;;;;;4.17;3.62;;;;;;;29.77;42.20;101441.13;1604207;88;20217;-51
2022/05/31 11:12:25;;;;;;;7.12;3.75;;;;;;;29.73;43.62;101450.45;1486003;96;21076;-52
2022/05/31 11:15:06;;;;;;;4.25;3.85;;;;;;;29.74;43.81;101441.39;1481322;95;21560;-48
2022/05/31 11:18:23;;;;;;;4.28;3.87;;;;;;;29.74;43.81;101449.44;1471258;95;21132;-53
2022/05/31 11:21:18;;;;;;;6.08;5.45;;;;;;;29.74;43.72;101445.42;1475679;96;21576;-48
2022/05/31 11:24:08;;;;;;;5.47;4.90;;;;;;;29.72;43.73;101437.97;1481530;96;21121;-51
2022/05/31 11:27:02;;;;;;;5.03;4.53;;;;;;;29.72;43.85;101442.00;1481189;95;21175;-51
2022/05/31 11:29:51;;;;;;;4.60;4.10;;;;;;;29.71;43.95;101428.25;1490726;95;21656;-51
2022/05/31 11:32:41;;;;;;;4.45;3.95;;;;;;;29.70;43.95;101427.88;1483540;95;21164;-50
2022/05/31 11:35:19;;;;;;;4.67;4.28;;;;;;;29.70;44.10;101421.17;1523901;91;21096;-48
2022/05/31 11:37:59;;;;;;;6.55;4.15;;;;;;;29.69;44.26;101425.72;1524564;91;21163;-51
2022/05/31 11:40:33;;;;;;;;;;;;;;;29.67;44.28;101423.66;1527256;91;21130;-47
2022/05/31 11:43:37;;;;;;;8.00;4.10;;;;;;;29.67;44.46;101422.81;1514749;93;20150;-51
2022/05/31 11:46:16;;;;;;;4.72;3.95;;;;;;;29.67;44.67;101424.15;1526567;93;21107;-50
2022/05/31 11:49:01;;;;;;;8.73;7.03;;;;;;;29.68;44.67;101416.44;1559997;87;21200;-51
2022/05/31 11:52:11;;;;;;;4.95;4.45;;;;;;;29.70;44.52;101421.17;1613293;87;21810;-49
2022/05/31 11:55:25;;;;;;;4.05;3.65;;;;;;;29.73;44.44;101422.28;1623906;86;21084;-49
2022/05/31 11:57:56;;;;;;;4.97;4.45;;;;;;;29.74;44.39;101417.25;1581467;88;21121;-49
2022/05/31 12:00:23;;;;;;;5.67;3.98;;;;;;;29.77;44.30;101416.98;1581908;89;21052;-50
2022/05/31 12:03:04;;;;;;;4.08;3.77;;;;;;;29.77;44.17;101415.64;1555241;91;21591;-48
2022/05/31 12:05:38;;;;;;;6.10;4.00;;;;;;;29.77;44.29;101408.94;1528069;92;21070;-48
2022/05/31 12:08:28;;;;;;;5.65;5.03;;;;;;;29.76;44.35;101408.56;1501124;96;21097;-50
2022/05/31 12:11:00;;;;;;;4.92;4.30;;;;;;;29.73;44.54;101412.89;1483160;95;21186;-52
2022/05/31 12:13:27;;;;;;;8.75;3.92;;;;;;;29.72;44.26;101416.52;1460886;98;21144;-51
2022/05/31 12:15:54;;;;;;;6.97;5.30;;;;;;;29.72;44.18;101416.52;1456327;97;21612;-49
2022/05/31 12:18:37;;;;;;;4.55;4.15;;;;;;;29.71;44.21;101412.16;1472763;95;21197;-49
2022/05/31 12:21:18;;;;;;;8.13;4.55;;;;;;;29.70;44.17;101416.66;1449124;97;21239;-47
2022/05/31 12:23:57;;;;;;;;;;;;;;;29.69;44.07;101410.10;1478993;95;21099;-50
2022/05/31 12:26:36;;;;;;;4.25;3.85;;;;;;;29.66;44.21;101409.03;1480009;95;20156;-53
2022/05/31 12:29:13;;;;;;;4.28;3.87;;;;;;;29.63;44.28;101406.64;1471217;95;21134;-50
2022/05/31 12:31:41;;;;;;;5.40;3.65;;;;;;;29.60;44.30;101409.59;1455936;98;21131;-49